首页
METAR-TAF:

METAR-TAF

机场 :

Santa Fe Municipal Airport

圣菲, 新墨西哥州, 美国

纬度: 35-36-38N, 经度: 106-05-42W, 海拔: 1934米

当前天气观测

该预报发布于44分钟前的13:53 UTC
风速5节,风向南转西南
温度 16°C
湿度 29%
气压 1018 hPa
能見度: 16.1公里
天空无云

METAR: KSAF 261353Z 21005KT 10SM CLR 16/M02 A3007 RMK AO2 SLP086 T01611017

时间: 08:37 (14:37 UTC)

预报

该预报发布于2小时和57分钟前的11:40 UTC
预报有效从26日的 12点(UTC)到 27日的 12点(UTC)
风速11节,风向西转西北
能見度: 10公里
天空无云
从 26日的 1700点(UTC)
风速17节,风向西,有时为27节阵风
能見度: 10公里
天空无云
从 27日的 0130点(UTC)
风速7节,风向北转西北
能見度: 10公里
天空无云
从 27日的 0600点(UTC)
风速7节,风向
能見度: 10公里
天空无云

TAF: KSAF 261140Z 2612/2712 30011KT P6SM SKC FM261700 28017G27KT P6SM SKC FM270130 33007KT P6SM SKC FM270600 36007KT P6SM SKC

超过4000个机场的气象观测和天气预报(METAR&TAF报告)。

可查询的气象台以黄色和红色小点在地图上表示。

将鼠标移到小点上方,可查看气象台名称。

然后点击查看天气观测和预报。

如需切换地图:点击带黑十字的绿色按钮放大地图;点击带横线的绿色按钮缩小地图;或者点击绿色箭头查看邻近地区的地图。


METAR-TAF: